Time;durP1;ratioP1;P1;durP2;ratioP2;P2;SDS_P1;SDS_P2;PMS_P1;PMS_P2;Temp;Humidity;BMP_temperature;BMP_pressure;BME280_temperature;BME280_humidity;BME280_pressure;Samples;Min_cycle;Max_cycle;Signal;HPM_P1;HPM_P2
2021/11/30 00:02:17;;;;;;;2.72;0.40;;;;;;;12.72;80.64;100097.59;1816234;79;21125;-56
2021/11/30 00:04:46;;;;;;;0.82;0.40;;;;;;;12.71;80.88;100109.95;1816138;79;21062;-56
2021/11/30 00:07:15;;;;;;;3.10;0.47;;;;;;;12.71;80.57;100096.75;1816109;79;21058;-56
2021/11/30 00:12:17;;;;;;;3.00;0.75;;;;;;;12.70;80.74;100088.42;1816135;79;21063;-56
2021/11/30 00:14:49;;;;;;;4.20;0.78;;;;;;;12.68;80.84;100098.23;1816246;79;21179;-56
2021/11/30 00:17:19;;;;;;;4.85;0.68;;;;;;;12.68;80.88;100092.11;1816114;79;21509;-56
2021/11/30 00:19:50;;;;;;;1.98;0.50;;;;;;;12.64;81.08;100084.84;1816069;79;21051;-56
2021/11/30 00:22:21;;;;;;;2.20;0.30;;;;;;;12.60;81.24;100066.59;1816036;79;21066;-57
2021/11/30 00:24:53;;;;;;;4.33;0.60;;;;;;;12.57;81.49;100065.00;1821322;78;21144;-56
2021/11/30 00:27:22;;;;;;;2.30;0.45;;;;;;;12.56;81.51;100073.88;1822126;78;21058;-56
2021/11/30 00:29:50;;;;;;;2.98;0.80;;;;;;;12.55;81.57;100059.80;1822292;78;21122;-56
2021/11/30 00:32:19;;;;;;;2.70;0.65;;;;;;;12.57;81.94;100035.95;1827966;78;21128;-56
2021/11/30 00:34:48;;;;;;;3.00;1.17;;;;;;;12.59;81.76;100088.69;1827826;78;21082;-57
2021/11/30 00:37:37;;;;;;;5.00;0.88;;;;;;;12.59;81.85;100073.68;1827892;78;21090;-56
2021/11/30 00:40:07;;;;;;;3.70;0.72;;;;;;;12.61;81.81;100082.36;1896038;74;21054;-56
2021/11/30 00:42:36;;;;;;;2.50;0.50;;;;;;;12.61;81.63;100071.80;1895845;76;21108;-56
2021/11/30 00:45:08;;;;;;;4.42;0.68;;;;;;;12.60;81.71;100071.88;1895635;76;21135;-57
2021/11/30 00:47:45;;;;;;;1.50;0.45;;;;;;;12.58;81.98;100068.03;1895692;75;21100;-56
2021/11/30 00:50:09;;;;;;;2.10;0.40;;;;;;;12.55;82.01;100052.36;1895425;75;21100;-56
2021/11/30 00:52:38;;;;;;;2.10;0.50;;;;;;;12.54;81.99;100059.88;1895721;75;21021;-56
2021/11/30 00:55:08;;;;;;;3.72;0.90;;;;;;;12.54;82.04;100055.92;1895699;74;21059;-56
2021/11/30 00:57:39;;;;;;;3.45;0.50;;;;;;;12.54;82.22;100020.27;1895611;76;21129;-56
2021/11/30 01:00:10;;;;;;;2.67;0.68;;;;;;;12.55;82.25;100012.75;1895729;75;21037;-57
2021/11/30 01:02:38;;;;;;;1.52;0.40;;;;;;;12.56;81.99;100031.62;1895027;75;21538;-57
2021/11/30 01:05:09;;;;;;;2.12;0.50;;;;;;;12.58;81.88;100061.44;1892060;76;20998;-58
2021/11/30 01:07:38;;;;;;;2.35;0.50;;;;;;;12.58;81.95;100027.09;1892823;76;21026;-58
2021/11/30 01:10:09;;;;;;;4.90;0.70;;;;;;;12.57;81.84;100028.03;1887628;75;21163;-61
2021/11/30 01:12:38;;;;;;;4.78;0.70;;;;;;;12.59;81.48;100010.30;1889855;76;21120;-58
2021/11/30 01:15:10;;;;;;;2.52;0.45;;;;;;;12.61;81.00;100018.98;1895636;76;21131;-58
2021/11/30 01:17:39;;;;;;;3.80;0.30;;;;;;;12.63;80.49;100021.53;1895659;74;21124;-59
2021/11/30 01:20:09;;;;;;;3.55;0.50;;;;;;;12.64;80.21;99990.23;1895662;76;21081;-58
2021/11/30 01:22:39;;;;;;;2.10;0.50;;;;;;;12.60;80.02;99990.88;1893324;76;20997;-59
2021/11/30 01:25:08;;;;;;;2.62;0.60;;;;;;;12.57;79.93;99975.69;1870503;76;21017;-53
2021/11/30 01:27:38;;;;;;;3.80;0.90;;;;;;;12.51;80.07;99933.34;1879540;76;21120;-60
2021/11/30 01:30:13;;;;;;;2.70;0.50;;;;;;;12.46;79.59;99936.23;1879002;76;21139;-59
2021/11/30 01:32:41;;;;;;;2.75;0.50;;;;;;;12.43;78.91;99907.40;1865946;76;21061;-59
2021/11/30 01:35:11;;;;;;;2.58;0.40;;;;;;;12.43;78.56;99935.13;1885563;76;21057;-58
2021/11/30 01:37:40;;;;;;;10.00;0.90;;;;;;;12.36;79.13;99958.38;1867489;76;21025;-57
2021/11/30 01:40:12;;;;;;;4.45;0.55;;;;;;;12.31;79.60;99955.16;1856508;76;21132;-57
2021/11/30 01:42:45;;;;;;;4.33;0.65;;;;;;;12.27;79.71;99951.00;1854800;77;21119;-56
2021/11/30 01:45:19;;;;;;;2.98;0.60;;;;;;;12.23;79.88;99945.53;1854511;77;21057;-56
2021/11/30 01:47:59;;;;;;;3.55;0.47;;;;;;;12.24;79.60;99934.02;1855773;76;21045;-56
2021/11/30 01:50:13;;;;;;;4.50;0.70;;;;;;;12.27;79.20;99976.08;1852052;77;21038;-56
2021/11/30 01:52:41;;;;;;;2.87;0.70;;;;;;;12.33;78.37;99948.47;1854870;77;21069;-55
2021/11/30 01:55:10;;;;;;;3.77;1.07;;;;;;;12.39;78.23;99971.02;1854778;77;21135;-56
2021/11/30 01:57:40;;;;;;;5.50;1.05;;;;;;;12.42;77.68;99957.65;1856852;76;21597;-55
2021/11/30 02:00:10;;;;;;;6.20;1.02;;;;;;;12.46;77.35;99951.23;1854790;77;21077;-60
2021/11/30 02:02:39;;;;;;;3.10;0.70;;;;;;;12.48;76.93;99871.46;1854790;77;21852;-55
2021/11/30 02:05:09;;;;;;;4.65;0.65;;;;;;;12.52;77.05;99939.85;1854865;77;21045;-56
2021/11/30 02:07:39;;;;;;;5.55;1.17;;;;;;;12.53;76.68;99956.05;1856875;76;21115;-57
2021/11/30 02:10:09;;;;;;;4.35;1.07;;;;;;;12.57;76.27;99960.69;1854758;77;21483;-55
2021/11/30 02:12:40;;;;;;;6.67;1.30;;;;;;;12.61;76.22;99947.67;1881880;76;21029;-61
2021/11/30 02:15:11;;;;;;;6.03;1.05;;;;;;;12.65;75.33;99966.38;1886421;76;21178;-58
2021/11/30 02:17:41;;;;;;;4.33;1.05;;;;;;;12.69;75.21;99969.20;1886318;76;21041;-57
2021/11/30 02:20:10;;;;;;;6.53;1.72;;;;;;;12.70;75.75;100013.15;1884047;76;21108;-56
2021/11/30 02:22:39;;;;;;;6.05;0.93;;;;;;;12.71;75.76;100004.30;1886458;76;21085;-57
2021/11/30 02:25:09;;;;;;;5.62;0.80;;;;;;;12.72;75.80;99995.41;1886262;76;21073;-58
2021/11/30 02:27:38;;;;;;;9.95;1.00;;;;;;;12.73;75.39;99986.56;1886282;76;21136;-59
2021/11/30 02:30:08;;;;;;;8.75;1.40;;;;;;;12.74;74.90;99945.14;1884024;76;21030;-56
2021/11/30 02:32:37;;;;;;;3.55;0.68;;;;;;;12.75;74.22;99968.83;1886438;76;21107;-55
2021/11/30 02:35:06;;;;;;;4.72;0.80;;;;;;;12.80;73.53;100007.31;1886318;76;21025;-55
2021/11/30 02:37:49;;;;;;;6.17;1.22;;;;;;;12.80;73.74;100037.70;1886447;75;21030;-56
2021/11/30 02:40:15;;;;;;;1.52;0.60;;;;;;;12.79;73.14;99979.22;1883551;73;21077;-55
2021/11/30 02:42:44;;;;;;;5.42;1.05;;;;;;;12.80;72.91;100012.59;1886323;75;21532;-55
2021/11/30 02:45:13;;;;;;;4.00;0.75;;;;;;;12.78;72.13;99985.43;1886315;76;21123;-56
2021/11/30 02:47:42;;;;;;;6.97;1.02;;;;;;;12.81;71.66;99991.38;1886372;75;21038;-56
2021/11/30 02:50:10;;;;;;;4.83;0.55;;;;;;;12.84;71.57;99971.88;1883991;75;21484;-57
2021/11/30 02:52:39;;;;;;;5.62;0.95;;;;;;;12.85;71.53;100048.84;1886305;76;21538;-58
2021/11/30 02:55:08;;;;;;;7.15;1.15;;;;;;;12.88;71.15;100045.55;1886306;76;21124;-58
2021/11/30 02:57:37;;;;;;;7.47;1.32;;;;;;;12.89;71.03;100043.30;1886423;76;21058;-56
2021/11/30 03:00:07;;;;;;;2.40;1.25;;;;;;;12.92;70.81;100056.80;1886287;76;21104;-57
2021/11/30 03:02:37;;;;;;;9.55;1.27;;;;;;;12.97;70.68;100061.82;1884005;75;21006;-55
2021/11/30 03:05:06;;;;;;;2.50;0.88;;;;;;;12.99;71.05;100081.07;1886285;76;21109;-56
2021/11/30 03:07:38;;;;;;;3.12;0.72;;;;;;;12.97;71.83;100082.48;1886071;76;21033;-56
2021/11/30 03:10:16;;;;;;;6.03;1.62;;;;;;;12.91;72.22;100065.20;1886311;76;21041;-56
2021/11/30 03:12:46;;;;;;;4.60;0.95;;;;;;;12.86;72.73;100086.23;1883070;76;21136;-59
2021/11/30 03:15:19;;;;;;;;;;;;;;;12.81;73.45;100077.72;1857245;77;21147;-58
2021/11/30 03:17:48;;;;;;;5.65;0.90;;;;;;;12.74;74.10;100080.73;1854704;77;20384;-58
2021/11/30 03:20:18;;;;;;;5.87;0.95;;;;;;;12.69;74.25;100082.78;1856768;76;21057;-58
2021/11/30 03:22:47;;;;;;;4.45;1.27;;;;;;;12.67;74.61;100093.91;1857018;74;21112;-61
2021/11/30 03:25:18;;;;;;;2.70;0.70;;;;;;;12.67;74.80;100093.91;1877230;76;21482;-62
2021/11/30 03:27:48;;;;;;;4.53;1.20;;;;;;;12.68;74.87;100096.91;1880411;75;21035;-61
2021/11/30 03:30:22;;;;;;;6.85;1.25;;;;;;;12.71;74.78;100090.14;1886332;76;21058;-62
2021/11/30 03:35:38;;;;;;;6.60;1.00;;;;;;;12.77;74.44;100101.30;1886251;76;21143;-61
2021/11/30 03:38:06;;;;;;;6.10;0.93;;;;;;;12.75;74.41;100106.19;1902446;75;21498;-62
2021/11/30 03:40:35;;;;;;;10.70;2.85;;;;;;;12.72;74.42;100116.08;1905392;74;21188;-62
2021/11/30 03:43:04;;;;;;;6.78;1.30;;;;;;;12.71;74.38;100128.45;1882182;75;21053;-62
2021/11/30 03:45:33;;;;;;;6.92;1.07;;;;;;;12.73;74.14;100089.58;1882113;76;21061;-63
2021/11/30 03:48:02;;;;;;;7.55;1.45;;;;;;;12.77;74.14;100123.75;1882197;76;21050;-62
2021/11/30 03:50:30;;;;;;;3.83;1.00;;;;;;;12.77;74.11;100125.08;1882055;75;21053;-62
2021/11/30 03:52:59;;;;;;;8.20;1.17;;;;;;;12.76;74.16;100132.13;1884519;76;21202;-63
2021/11/30 03:55:28;;;;;;;13.22;2.05;;;;;;;12.77;74.06;100138.28;1884865;76;21026;-63
2021/11/30 03:57:57;;;;;;;9.58;1.20;;;;;;;12.75;74.10;100138.37;1884891;75;21038;-61
2021/11/30 04:00:26;;;;;;;7.65;1.35;;;;;;;12.75;74.07;100133.92;1884801;75;21120;-63
2021/11/30 04:02:54;;;;;;;11.80;1.60;;;;;;;12.75;74.00;100141.85;1884997;75;21139;-61
2021/11/30 04:05:24;;;;;;;11.95;1.85;;;;;;;12.77;73.99;100144.89;1884743;76;21559;-61
2021/11/30 04:07:53;;;;;;;11.65;1.90;;;;;;;12.77;74.05;100156.78;1885008;76;21113;-61
2021/11/30 04:10:22;;;;;;;7.05;1.32;;;;;;;12.77;74.00;100154.13;1886011;76;21103;-61
2021/11/30 04:12:51;;;;;;;11.20;1.75;;;;;;;12.76;74.03;100159.86;1886446;76;21563;-60
2021/11/30 04:15:20;;;;;;;11.20;1.92;;;;;;;12.76;73.97;100159.86;1886391;76;21504;-61
2021/11/30 04:17:49;;;;;;;9.65;1.10;;;;;;;12.77;74.05;100171.30;1886396;76;21068;-60
2021/11/30 04:20:19;;;;;;;8.60;1.70;;;;;;;12.77;73.98;100171.30;1886285;76;21022;-59
2021/11/30 04:22:48;;;;;;;9.15;1.37;;;;;;;12.75;73.89;100179.31;1886380;76;21037;-60
2021/11/30 04:25:17;;;;;;;6.92;1.07;;;;;;;12.77;73.74;100200.36;1886406;76;21172;-61
2021/11/30 04:27:46;;;;;;;8.75;1.27;;;;;;;12.77;73.71;100196.41;1886378;76;21464;-59
2021/11/30 04:30:15;;;;;;;7.75;1.62;;;;;;;12.73;73.71;100208.45;1886319;75;21054;-63
2021/11/30 04:32:44;;;;;;;9.65;1.50;;;;;;;12.71;73.72;100226.18;1886367;76;21546;-61
2021/11/30 04:35:14;;;;;;;7.58;1.25;;;;;;;12.72;73.77;100218.62;1885232;76;21046;-61
2021/11/30 04:37:43;;;;;;;10.60;1.57;;;;;;;12.75;73.40;100210.53;1884858;76;21140;-61
2021/11/30 04:40:14;;;;;;;9.85;1.85;;;;;;;12.79;73.24;100223.11;1884830;76;21113;-61
2021/11/30 04:42:45;;;;;;;11.45;1.75;;;;;;;12.80;73.18;100214.70;1894933;75;21150;-61
2021/11/30 04:45:27;;;;;;;11.60;1.80;;;;;;;12.78;73.09;100209.97;1895726;76;21037;-60
2021/11/30 04:47:56;;;;;;;10.50;1.82;;;;;;;12.76;72.96;100207.41;1895514;75;21156;-58
2021/11/30 04:50:30;;;;;;;10.95;1.60;;;;;;;12.74;72.94;100199.61;1895838;76;21030;-58
2021/11/30 04:52:58;;;;;;;8.90;1.42;;;;;;;12.73;72.96;100186.00;1895147;74;21006;-59
2021/11/30 04:55:32;;;;;;;10.75;1.50;;;;;;;12.69;72.99;100184.95;1895650;76;21033;-59
2021/11/30 04:58:04;;;;;;;11.53;2.12;;;;;;;12.64;73.05;100179.92;1894814;75;21033;-59
2021/11/30 05:00:36;;;;;;;14.78;1.98;;;;;;;12.62;73.07;100177.84;1895692;76;21034;-61
2021/11/30 05:03:06;;;;;;;5.67;1.30;;;;;;;12.63;73.11;100178.67;1895569;76;21017;-61
2021/11/30 05:05:36;;;;;;;5.45;1.30;;;;;;;12.62;73.07;100183.12;1895803;76;21033;-60
2021/11/30 05:08:05;;;;;;;14.20;2.52;;;;;;;12.62;73.00;100215.29;1895644;76;21660;-60
2021/11/30 05:10:34;;;;;;;14.65;2.47;;;;;;;12.58;73.03;100209.77;1895799;76;21111;-59
2021/11/30 05:13:02;;;;;;;11.83;1.92;;;;;;;12.57;73.00;100237.14;1894787;74;21053;-60
2021/11/30 05:15:31;;;;;;;12.85;1.70;;;;;;;12.57;72.89;100249.86;1893836;76;21038;-60
2021/11/30 05:18:00;;;;;;;6.42;1.65;;;;;;;12.57;72.81;100244.58;1893818;76;21167;-60
2021/11/30 05:20:30;;;;;;;8.60;1.45;;;;;;;12.56;72.79;100223.09;1894817;76;21049;-61
2021/11/30 05:22:59;;;;;;;9.98;2.25;;;;;;;12.56;72.61;100221.77;1895719;76;21488;-60
2021/11/30 05:25:37;;;;;;;7.60;1.42;;;;;;;12.58;72.53;100237.05;1895676;75;21476;-60
2021/11/30 05:27:58;;;;;;;8.78;2.77;;;;;;;12.58;72.50;100237.05;1892488;76;21073;-60
2021/11/30 05:30:27;;;;;;;11.88;2.15;;;;;;;12.58;72.44;100225.17;1895681;75;21045;-60
2021/11/30 05:32:56;;;;;;;8.88;1.45;;;;;;;12.59;72.47;100239.22;1895802;76;21045;-60
2021/11/30 05:35:25;;;;;;;8.35;1.62;;;;;;;12.59;72.44;100234.78;1895808;76;21111;-60
2021/11/30 05:37:54;;;;;;;10.70;2.12;;;;;;;12.57;72.42;100231.38;1895706;76;21549;-61
2021/11/30 05:40:22;;;;;;;13.13;1.50;;;;;;;12.56;72.54;100244.22;1895647;76;21042;-60
2021/11/30 05:42:51;;;;;;;10.25;1.62;;;;;;;12.55;72.66;100235.89;1895598;74;21190;-62
2021/11/30 05:45:21;;;;;;;13.20;2.10;;;;;;;12.60;72.65;100241.78;1894530;74;21057;-60
2021/11/30 05:47:49;;;;;;;14.83;1.90;;;;;;;12.61;72.55;100240.83;1893825;76;21539;-61
2021/11/30 05:50:19;;;;;;;7.00;1.75;;;;;;;12.68;72.49;100255.40;1893869;76;21035;-61
2021/11/30 05:52:47;;;;;;;17.52;2.40;;;;;;;12.73;72.51;100256.00;1895044;76;21542;-62
2021/11/30 05:55:16;;;;;;;9.78;1.60;;;;;;;12.76;72.41;100247.04;1895773;76;21127;-61
2021/11/30 05:57:45;;;;;;;11.57;1.77;;;;;;;12.77;72.34;100251.88;1895615;76;21115;-63
2021/11/30 06:00:17;;;;;;;11.33;1.80;;;;;;;12.77;72.26;100253.20;1895642;76;21045;-61
2021/11/30 06:02:57;;;;;;;11.33;1.98;;;;;;;12.74;72.20;100244.52;1895389;76;21033;-62
2021/11/30 06:05:24;;;;;;;12.47;1.67;;;;;;;12.70;72.18;100235.51;1895195;74;21043;-61
2021/11/30 06:07:53;;;;;;;8.30;1.52;;;;;;;12.68;72.12;100254.08;1895659;76;21484;-62
2021/11/30 06:10:22;;;;;;;12.70;1.92;;;;;;;12.69;72.08;100262.41;1895556;76;21448;-61
2021/11/30 06:12:51;;;;;;;10.70;2.02;;;;;;;12.73;71.92;100272.33;1895758;76;21111;-61
2021/11/30 06:18:09;;;;;;;8.70;1.50;;;;;;;12.77;71.49;100287.06;1814523;78;21121;-61
2021/11/30 06:20:38;;;;;;;21.12;2.25;;;;;;;12.78;71.53;100290.11;1814338;79;21510;-64
2021/11/30 06:23:07;;;;;;;15.45;2.52;;;;;;;12.81;71.56;100286.43;1814201;79;21176;-63
2021/11/30 06:25:36;;;;;;;13.55;1.92;;;;;;;12.80;71.56;100282.95;1815789;79;21050;-61
2021/11/30 06:28:06;;;;;;;8.95;2.17;;;;;;;12.81;71.59;100278.03;1814433;79;21108;-59
2021/11/30 06:30:34;;;;;;;12.78;1.85;;;;;;;12.82;71.61;100257.29;1814339;79;21481;-59
2021/11/30 06:33:04;;;;;;;9.10;1.65;;;;;;;12.85;71.56;100257.57;1814334;79;21184;-59
2021/11/30 06:35:32;;;;;;;8.15;1.57;;;;;;;12.87;71.46;100257.02;1814190;79;21592;-59
2021/11/30 06:38:01;;;;;;;16.55;2.52;;;;;;;12.92;71.36;100258.45;1814350;79;21551;-60
2021/11/30 06:40:30;;;;;;;10.15;1.47;;;;;;;12.95;71.17;100269.34;1814443;79;21062;-61
2021/11/30 06:42:59;;;;;;;8.93;1.12;;;;;;;13.01;70.97;100258.89;1814335;79;21035;-59
2021/11/30 06:45:28;;;;;;;6.40;1.90;;;;;;;13.06;70.35;100265.62;1814307;79;21094;-61
2021/11/30 06:47:57;;;;;;;14.40;2.17;;;;;;;13.13;70.13;100256.84;1814220;79;21496;-60
2021/11/30 06:50:26;;;;;;;10.03;1.82;;;;;;;13.20;69.98;100254.72;1814381;79;21166;-61
2021/11/30 06:52:55;;;;;;;12.93;2.62;;;;;;;13.28;69.80;100273.65;1814387;79;21047;-60
2021/11/30 06:55:26;;;;;;;11.43;1.50;;;;;;;13.31;69.75;100272.16;1814497;79;21109;-61
2021/11/30 06:57:54;;;;;;;13.10;2.12;;;;;;;13.29;69.61;100276.66;1816143;79;21140;-61
2021/11/30 07:00:25;;;;;;;17.65;2.95;;;;;;;13.24;69.63;100283.99;1816028;79;21106;-61
2021/11/30 07:02:55;;;;;;;4.33;1.60;;;;;;;13.20;69.72;100290.41;1816202;79;21046;-61
2021/11/30 07:05:37;;;;;;;10.95;2.33;;;;;;;13.17;69.75;100290.57;1816032;79;21496;-61
2021/11/30 07:08:13;;;;;;;10.45;1.70;;;;;;;13.16;69.78;100289.73;1787378;78;21140;-60
2021/11/30 07:10:41;;;;;;;8.78;2.10;;;;;;;13.18;69.65;100287.84;1788827;79;21136;-60
2021/11/30 07:13:17;;;;;;;9.38;2.08;;;;;;;13.17;69.53;100286.16;1787339;79;21164;-61
2021/11/30 07:15:48;;;;;;;8.23;2.25;;;;;;;13.20;69.52;100296.53;1786693;80;21193;-60
2021/11/30 07:18:17;;;;;;;17.17;2.37;;;;;;;13.30;69.40;100291.15;1836781;76;21041;-60
2021/11/30 07:20:47;;;;;;;9.90;2.30;;;;;;;13.76;68.73;100278.34;1841963;78;21096;-61
2021/11/30 07:23:16;;;;;;;12.20;2.35;;;;;;;14.31;67.16;100262.20;1841641;77;21086;-61
2021/11/30 07:25:46;;;;;;;6.15;1.52;;;;;;;15.35;65.05;100257.81;1840509;78;21533;-60
2021/11/30 07:28:16;;;;;;;8.88;1.95;;;;;;;15.11;64.70;100234.61;1840491;78;21045;-60
2021/11/30 07:30:44;;;;;;;13.28;2.15;;;;;;;16.20;62.73;100254.24;1842062;78;21107;-59
2021/11/30 07:33:13;;;;;;;10.50;1.25;;;;;;;17.32;60.57;100259.44;1841943;77;21021;-60
2021/11/30 07:35:42;;;;;;;17.17;3.33;;;;;;;17.24;59.29;100255.16;1841794;78;21028;-61
2021/11/30 07:38:10;;;;;;;14.13;2.62;;;;;;;17.00;58.58;100266.29;1841879;78;21096;-62
2021/11/30 07:40:39;;;;;;;12.75;1.82;;;;;;;17.92;57.68;100260.70;1841893;78;21045;-60
2021/11/30 07:43:09;;;;;;;14.63;2.98;;;;;;;19.27;55.57;100245.90;1841894;78;21428;-61
2021/11/30 07:45:38;;;;;;;6.40;1.50;;;;;;;19.39;53.83;100235.16;1841967;77;21045;-61
2021/11/30 07:48:06;;;;;;;10.50;2.30;;;;;;;19.96;53.04;100225.85;1841878;77;21045;-61
2021/11/30 07:50:35;;;;;;;9.08;1.62;;;;;;;20.80;51.81;100225.60;1811791;79;21085;-61
2021/11/30 07:53:04;;;;;;;4.78;1.27;;;;;;;21.39;49.67;100207.72;1811834;79;21083;-61
2021/11/30 07:55:34;;;;;;;6.62;1.42;;;;;;;21.12;48.97;100217.80;1811864;79;21479;-62
2021/11/30 07:58:03;;;;;;;8.88;2.15;;;;;;;21.12;48.39;100209.77;1811964;79;21051;-62
2021/11/30 08:00:32;;;;;;;14.78;2.08;;;;;;;20.89;48.54;100221.73;1836265;78;21034;-60
2021/11/30 08:03:01;;;;;;;9.90;1.82;;;;;;;21.27;47.15;100221.40;1841931;78;21099;-61
2021/11/30 08:05:30;;;;;;;8.58;1.72;;;;;;;21.32;46.77;100220.45;1842103;78;21040;-61
2021/11/30 08:07:58;;;;;;;8.98;1.85;;;;;;;21.56;44.87;100200.81;1841878;78;21464;-61
2021/11/30 08:10:28;;;;;;;8.28;1.65;;;;;;;21.52;44.94;100195.87;1841744;77;21435;-60
2021/11/30 08:12:58;;;;;;;8.13;1.60;;;;;;;22.04;44.79;100200.31;1841937;78;21004;-60
2021/11/30 08:15:27;;;;;;;7.58;1.57;;;;;;;22.16;43.58;100196.94;1857501;77;21540;-61
2021/11/30 08:17:56;;;;;;;10.28;2.30;;;;;;;22.11;43.33;100181.78;1808533;78;21582;-60
2021/11/30 08:20:25;;;;;;;7.70;1.90;;;;;;;22.09;43.17;100170.37;1825065;77;21065;-60
2021/11/30 08:22:54;;;;;;;9.58;1.00;;;;;;;21.89;44.04;100175.83;1884128;76;21069;-61
2021/11/30 08:25:24;;;;;;;10.75;2.05;;;;;;;21.56;44.68;100161.97;1884157;76;21107;-59
2021/11/30 08:27:55;;;;;;;7.72;1.65;;;;;;;22.38;43.30;100168.08;1884014;76;21022;-59
2021/11/30 08:30:24;;;;;;;12.88;1.70;;;;;;;22.73;42.31;100149.83;1884134;76;21034;-61
2021/11/30 08:32:53;;;;;;;10.50;1.55;;;;;;;23.03;41.17;100139.17;1883656;76;21029;-61
2021/11/30 08:35:21;;;;;;;8.50;1.65;;;;;;;22.91;40.03;100147.14;1884079;76;21115;-60
2021/11/30 08:37:50;;;;;;;9.60;1.55;;;;;;;21.72;41.73;100139.06;1884077;76;21050;-60
2021/11/30 08:40:19;;;;;;;7.90;1.55;;;;;;;22.09;41.98;100141.71;1884082;76;20998;-61
2021/11/30 08:42:48;;;;;;;4.85;0.80;;;;;;;22.04;42.06;100134.64;1883697;76;21101;-59
2021/11/30 08:45:17;;;;;;;4.30;1.10;;;;;;;22.84;40.11;100131.31;1884031;76;21045;-59
2021/11/30 08:47:46;;;;;;;4.83;1.07;;;;;;;23.44;38.80;100121.20;1884030;76;21053;-60
2021/11/30 08:50:18;;;;;;;3.92;0.90;;;;;;;23.10;37.78;100121.48;1884016;76;21496;-60
2021/11/30 08:52:47;;;;;;;7.70;1.30;;;;;;;23.00;38.15;100100.58;1883911;76;21010;-61
2021/11/30 08:55:17;;;;;;;4.97;1.17;;;;;;;23.22;37.88;100106.45;1884068;76;21056;-61
2021/11/30 08:57:46;;;;;;;3.90;0.72;;;;;;;23.43;37.03;100083.27;1884040;76;21488;-60
2021/11/30 09:00:17;;;;;;;5.42;0.90;;;;;;;23.32;37.30;100072.28;1882825;76;21558;-59
2021/11/30 09:02:46;;;;;;;6.17;0.80;;;;;;;23.46;36.75;100078.89;1882163;76;21062;-58
2021/11/30 09:05:16;;;;;;;4.33;0.98;;;;;;;23.54;36.80;100058.80;1882170;76;21533;-58
2021/11/30 09:07:45;;;;;;;3.85;1.17;;;;;;;23.27;36.88;100069.23;1882089;76;21504;-58
2021/11/30 09:10:14;;;;;;;7.40;1.00;;;;;;;23.15;37.02;100066.45;1882237;76;21520;-58
2021/11/30 09:12:43;;;;;;;6.37;0.95;;;;;;;23.15;37.50;100054.37;1882199;76;21132;-58
2021/11/30 09:15:13;;;;;;;6.28;1.27;;;;;;;21.56;40.10;100065.53;1882205;76;21472;-58
2021/11/30 09:17:44;;;;;;;4.17;1.17;;;;;;;20.52;42.47;100069.89;1882210;76;21054;-58
2021/11/30 09:20:14;;;;;;;6.15;1.22;;;;;;;21.32;41.81;100058.45;1870527;76;21066;-58
2021/11/30 09:22:43;;;;;;;7.37;1.40;;;;;;;21.76;41.38;100056.05;1870291;77;21023;-58
2021/11/30 09:25:12;;;;;;;5.58;1.20;;;;;;;22.03;40.65;100045.81;1870421;77;21015;-58
2021/11/30 09:27:42;;;;;;;9.35;0.82;;;;;;;21.70;41.11;100059.34;1870293;77;21144;-58
2021/11/30 09:30:13;;;;;;;7.90;1.30;;;;;;;20.40;43.22;100055.83;1870421;77;21019;-58
2021/11/30 09:32:42;;;;;;;4.20;0.93;;;;;;;19.16;45.73;100045.77;1871552;77;21014;-58
2021/11/30 09:35:14;;;;;;;5.28;1.10;;;;;;;18.93;46.69;100044.26;1872143;76;21445;-59
2021/11/30 09:37:44;;;;;;;3.92;0.85;;;;;;;18.41;47.91;100035.63;1872171;77;21104;-58
2021/11/30 09:40:15;;;;;;;5.92;0.90;;;;;;;17.86;49.43;100018.85;1872110;76;21465;-58
2021/11/30 09:42:44;;;;;;;4.00;1.22;;;;;;;17.47;50.43;100018.39;1871842;77;21015;-58
2021/11/30 09:45:14;;;;;;;6.10;1.15;;;;;;;17.16;51.20;100014.14;1872008;77;21466;-58
2021/11/30 09:47:44;;;;;;;3.37;0.82;;;;;;;16.80;51.73;100014.65;1872119;77;21070;-59
2021/11/30 09:50:15;;;;;;;9.20;1.10;;;;;;;16.52;52.29;100005.28;1872176;77;21030;-58
2021/11/30 09:52:47;;;;;;;3.92;0.93;;;;;;;16.78;52.44;99985.55;1871917;77;21014;-59
2021/11/30 09:55:17;;;;;;;6.20;1.30;;;;;;;17.48;51.25;99974.33;1872085;77;21131;-60
2021/11/30 09:57:46;;;;;;;2.50;0.70;;;;;;;17.51;51.13;99966.60;1871281;77;21026;-59
2021/11/30 10:00:16;;;;;;;8.33;1.00;;;;;;;17.21;51.59;99924.19;1870238;77;21160;-60
2021/11/30 10:02:45;;;;;;;5.92;0.95;;;;;;;17.04;52.19;99952.59;1870342;76;21106;-60
2021/11/30 10:05:13;;;;;;;2.83;1.55;;;;;;;16.97;52.61;99937.12;1870236;77;21473;-59
2021/11/30 10:07:45;;;;;;;7.95;1.02;;;;;;;17.69;51.60;99935.00;1870269;77;21063;-59
2021/11/30 10:10:20;;;;;;;5.75;1.10;;;;;;;17.53;51.81;99922.91;1870159;77;21059;-60
2021/11/30 10:13:07;;;;;;;4.78;1.25;;;;;;;17.40;52.14;99920.05;1870235;77;21364;-60
2021/11/30 10:15:50;;;;;;;5.42;1.70;;;;;;;17.27;52.78;99899.74;1870224;77;21578;-61
2021/11/30 10:18:23;;;;;;;5.03;1.05;;;;;;;17.23;53.26;99888.16;1869225;77;21501;-58
2021/11/30 10:20:54;;;;;;;11.28;1.27;;;;;;;17.22;53.36;99888.63;1873838;76;21113;-59
2021/11/30 10:23:25;;;;;;;8.55;1.30;;;;;;;17.63;52.96;99877.78;1873521;76;21462;-59
2021/11/30 10:25:54;;;;;;;8.03;1.10;;;;;;;18.03;52.07;99861.65;1872801;76;21422;-59
2021/11/30 10:28:27;;;;;;;4.20;0.90;;;;;;;19.07;49.83;99856.66;1873699;76;21129;-58
2021/11/30 10:30:54;;;;;;;7.17;1.47;;;;;;;19.22;48.67;99859.79;1873429;76;21035;-62
2021/11/30 10:33:26;;;;;;;3.58;0.93;;;;;;;19.23;48.56;99844.11;1873714;76;21113;-60
2021/11/30 10:36:00;;;;;;;5.30;0.70;;;;;;;20.38;46.30;99819.83;1873704;76;21007;-61
2021/11/30 10:38:37;;;;;;;4.42;0.93;;;;;;;21.45;44.08;99816.66;1873682;76;21042;-58
2021/11/30 10:41:26;;;;;;;6.45;1.20;;;;;;;21.25;43.80;99794.98;1875120;76;21461;-59
2021/11/30 10:43:58;;;;;;;5.25;1.05;;;;;;;20.95;44.65;99775.13;1875063;76;21062;-59
2021/11/30 10:46:34;;;;;;;3.20;1.07;;;;;;;20.61;45.52;99775.72;1874561;76;21562;-59
2021/11/30 10:49:05;;;;;;;5.30;1.25;;;;;;;19.48;47.83;99767.17;1874902;76;21026;-60
2021/11/30 10:51:46;;;;;;;6.90;1.25;;;;;;;19.01;48.97;99762.98;1875129;76;21127;-60
2021/11/30 10:54:15;;;;;;;7.28;0.98;;;;;;;18.73;49.17;99755.25;1875112;76;21469;-61
2021/11/30 10:56:44;;;;;;;4.22;0.88;;;;;;;19.37;48.02;99743.30;1875062;76;21481;-60
2021/11/30 10:59:21;;;;;;;7.58;1.00;;;;;;;19.16;48.46;99733.57;1874684;76;21453;-60
2021/11/30 11:01:50;;;;;;;9.08;0.95;;;;;;;18.34;50.32;99735.97;1875089;76;21074;-60
2021/11/30 11:04:22;;;;;;;4.65;1.10;;;;;;;17.60;52.29;99729.45;1874964;75;21136;-61
2021/11/30 11:07:06;;;;;;;3.42;0.93;;;;;;;17.23;53.17;99716.58;1873728;76;21565;-59
2021/11/30 11:09:40;;;;;;;5.60;1.00;;;;;;;17.02;53.79;99707.20;1875000;76;21026;-60
2021/11/30 11:12:10;;;;;;;9.33;1.00;;;;;;;16.84;54.44;99697.13;1875202;76;21038;-59
2021/11/30 11:14:48;;;;;;;5.10;1.10;;;;;;;17.13;54.03;99701.38;1874992;76;21022;-60
2021/11/30 11:17:35;;;;;;;4.83;0.75;;;;;;;16.83;54.79;99697.25;1874466;76;21078;-60
2021/11/30 11:20:04;;;;;;;3.62;0.90;;;;;;;16.52;55.48;99685.92;1873596;75;21152;-60
2021/11/30 11:22:34;;;;;;;5.55;1.22;;;;;;;16.33;56.14;99675.09;1874367;76;21089;-59
2021/11/30 11:25:06;;;;;;;10.50;1.35;;;;;;;16.05;57.02;99681.77;1873611;76;21493;-60
2021/11/30 11:27:39;;;;;;;5.45;1.17;;;;;;;15.94;57.58;99668.00;1858851;76;21037;-59
2021/11/30 11:30:13;;;;;;;8.73;0.90;;;;;;;15.81;58.14;99654.35;1847868;76;21042;-59
2021/11/30 11:33:02;;;;;;;6.90;1.17;;;;;;;15.77;58.14;99634.33;1872238;76;21104;-59
2021/11/30 11:35:52;;;;;;;5.60;0.90;;;;;;;15.77;58.51;99608.28;1921905;73;21109;-58
2021/11/30 11:38:21;;;;;;;5.60;0.80;;;;;;;16.00;58.05;99606.44;1963165;73;21026;-58
2021/11/30 11:40:50;;;;;;;5.70;1.22;;;;;;;16.09;57.78;99597.74;1898144;75;21012;-60
2021/11/30 11:43:19;;;;;;;6.78;0.93;;;;;;;16.51;57.00;99588.59;1898248;75;21017;-60
2021/11/30 11:45:48;;;;;;;6.45;0.65;;;;;;;16.43;57.31;99592.34;1914414;73;21426;-60
2021/11/30 11:48:17;;;;;;;4.33;0.62;;;;;;;16.66;56.84;99582.98;1965843;73;21539;-60
2021/11/30 11:50:52;;;;;;;5.58;0.85;;;;;;;16.62;57.03;99580.20;1959107;73;21074;-57